sensor_id;sensor_type;location;lat;lon;timestamp;P1;durP1;ratioP1;P2;durP2;ratioP2
40931;SDS011;36257;46.052;12.540;2023-09-12T00:01:41;9.90;;;8.20;;
40931;SDS011;36257;46.052;12.540;2023-09-12T00:04:06;8.52;;;7.32;;
40931;SDS011;36257;46.052;12.540;2023-09-12T00:06:32;9.07;;;8.18;;
40931;SDS011;36257;46.052;12.540;2023-09-12T00:08:57;10.85;;;8.48;;
40931;SDS011;36257;46.052;12.540;2023-09-12T00:11:23;9.82;;;8.05;;
40931;SDS011;36257;46.052;12.540;2023-09-12T00:13:50;7.75;;;7.05;;
40931;SDS011;36257;46.052;12.540;2023-09-12T00:16:17;9.88;;;8.30;;
40931;SDS011;36257;46.052;12.540;2023-09-12T00:18:42;12.02;;;8.45;;
40931;SDS011;36257;46.052;12.540;2023-09-12T00:21:08;9.38;;;7.72;;
40931;SDS011;36257;46.052;12.540;2023-09-12T00:23:34;9.90;;;8.20;;
40931;SDS011;36257;46.052;12.540;2023-09-12T00:26:00;8.10;;;7.40;;
40931;SDS011;36257;46.052;12.540;2023-09-12T00:28:26;10.27;;;8.77;;
40931;SDS011;36257;46.052;12.540;2023-09-12T00:30:51;9.68;;;6.93;;
40931;SDS011;36257;46.052;12.540;2023-09-12T00:33:17;8.80;;;7.70;;
40931;SDS011;36257;46.052;12.540;2023-09-12T00:35:43;11.20;;;8.68;;
40931;SDS011;36257;46.052;12.540;2023-09-12T00:38:09;9.43;;;8.55;;
40931;SDS011;36257;46.052;12.540;2023-09-12T00:40:35;8.85;;;8.05;;
40931;SDS011;36257;46.052;12.540;2023-09-12T00:43:02;10.50;;;7.40;;
40931;SDS011;36257;46.052;12.540;2023-09-12T00:45:28;10.63;;;7.85;;
40931;SDS011;36257;46.052;12.540;2023-09-12T00:47:53;12.05;;;8.55;;
40931;SDS011;36257;46.052;12.540;2023-09-12T00:50:20;9.35;;;7.57;;
40931;SDS011;36257;46.052;12.540;2023-09-12T00:52:48;9.63;;;8.30;;
40931;SDS011;36257;46.052;12.540;2023-09-12T00:55:14;10.55;;;8.15;;
40931;SDS011;36257;46.052;12.540;2023-09-12T00:57:40;8.00;;;7.25;;
40931;SDS011;36257;46.052;12.540;2023-09-12T01:00:07;8.32;;;7.40;;
40931;SDS011;36257;46.052;12.540;2023-09-12T01:02:37;9.25;;;8.35;;
40931;SDS011;36257;46.052;12.540;2023-09-12T01:05:05;9.20;;;8.13;;
40931;SDS011;36257;46.052;12.540;2023-09-12T01:07:31;9.10;;;8.20;;
40931;SDS011;36257;46.052;12.540;2023-09-12T01:09:57;8.85;;;7.95;;
40931;SDS011;36257;46.052;12.540;2023-09-12T01:12:23;8.50;;;7.60;;
40931;SDS011;36257;46.052;12.540;2023-09-12T01:14:49;8.73;;;7.70;;
40931;SDS011;36257;46.052;12.540;2023-09-12T01:17:14;11.23;;;7.82;;
40931;SDS011;36257;46.052;12.540;2023-09-12T01:19:40;8.73;;;7.93;;
40931;SDS011;36257;46.052;12.540;2023-09-12T01:22:16;9.43;;;7.75;;
40931;SDS011;36257;46.052;12.540;2023-09-12T01:27:53;12.45;;;8.02;;
40931;SDS011;36257;46.052;12.540;2023-09-12T01:32:47;8.25;;;7.45;;
40931;SDS011;36257;46.052;12.540;2023-09-12T01:35:13;9.27;;;8.18;;
40931;SDS011;36257;46.052;12.540;2023-09-12T01:37:39;8.43;;;7.38;;
40931;SDS011;36257;46.052;12.540;2023-09-12T01:40:05;8.13;;;7.38;;
40931;SDS011;36257;46.052;12.540;2023-09-12T01:42:42;8.27;;;7.35;;
40931;SDS011;36257;46.052;12.540;2023-09-12T01:45:10;10.48;;;7.82;;
40931;SDS011;36257;46.052;12.540;2023-09-12T01:47:40;8.27;;;7.47;;
40931;SDS011;36257;46.052;12.540;2023-09-12T01:50:08;8.88;;;7.28;;
40931;SDS011;36257;46.052;12.540;2023-09-12T01:52:38;9.73;;;7.82;;
40931;SDS011;36257;46.052;12.540;2023-09-12T01:55:04;9.55;;;7.63;;
40931;SDS011;36257;46.052;12.540;2023-09-12T01:59:57;8.98;;;8.02;;
40931;SDS011;36257;46.052;12.540;2023-09-12T02:02:23;8.70;;;7.57;;
40931;SDS011;36257;46.052;12.540;2023-09-12T02:05:04;8.88;;;7.97;;
40931;SDS011;36257;46.052;12.540;2023-09-12T02:07:33;9.25;;;7.88;;
40931;SDS011;36257;46.052;12.540;2023-09-12T02:10:03;7.80;;;6.85;;
40931;SDS011;36257;46.052;12.540;2023-09-12T02:12:29;8.80;;;7.27;;
40931;SDS011;36257;46.052;12.540;2023-09-12T02:14:56;7.90;;;7.20;;
40931;SDS011;36257;46.052;12.540;2023-09-12T02:17:22;8.25;;;7.47;;
40931;SDS011;36257;46.052;12.540;2023-09-12T02:19:47;11.05;;;7.95;;
40931;SDS011;36257;46.052;12.540;2023-09-12T02:22:13;9.13;;;8.30;;
40931;SDS011;36257;46.052;12.540;2023-09-12T02:24:39;8.75;;;7.95;;
40931;SDS011;36257;46.052;12.540;2023-09-12T02:27:05;10.88;;;8.10;;
40931;SDS011;36257;46.052;12.540;2023-09-12T02:29:30;11.38;;;7.93;;
40931;SDS011;36257;46.052;12.540;2023-09-12T02:31:57;9.98;;;8.98;;
40931;SDS011;36257;46.052;12.540;2023-09-12T02:34:23;8.98;;;8.05;;
40931;SDS011;36257;46.052;12.540;2023-09-12T02:36:49;8.77;;;7.97;;
40931;SDS011;36257;46.052;12.540;2023-09-12T02:39:15;8.50;;;7.70;;
40931;SDS011;36257;46.052;12.540;2023-09-12T02:41:40;17.77;;;8.48;;
40931;SDS011;36257;46.052;12.540;2023-09-12T02:44:06;8.32;;;7.47;;
40931;SDS011;36257;46.052;12.540;2023-09-12T02:46:32;8.65;;;7.68;;
40931;SDS011;36257;46.052;12.540;2023-09-12T02:48:58;8.65;;;7.80;;
40931;SDS011;36257;46.052;12.540;2023-09-12T02:51:27;10.30;;;8.70;;
40931;SDS011;36257;46.052;12.540;2023-09-12T02:53:53;9.15;;;7.55;;
40931;SDS011;36257;46.052;12.540;2023-09-12T02:56:19;8.63;;;7.28;;
40931;SDS011;36257;46.052;12.540;2023-09-12T02:58:48;8.57;;;7.78;;
40931;SDS011;36257;46.052;12.540;2023-09-12T03:01:18;9.45;;;8.45;;
40931;SDS011;36257;46.052;12.540;2023-09-12T03:03:48;9.30;;;8.15;;
40931;SDS011;36257;46.052;12.540;2023-09-12T03:06:14;10.57;;;7.43;;
40931;SDS011;36257;46.052;12.540;2023-09-12T03:08:41;9.23;;;8.35;;
40931;SDS011;36257;46.052;12.540;2023-09-12T03:11:08;10.30;;;8.68;;
40931;SDS011;36257;46.052;12.540;2023-09-12T03:13:36;9.52;;;8.40;;
40931;SDS011;36257;46.052;12.540;2023-09-12T03:16:02;15.43;;;9.00;;
40931;SDS011;36257;46.052;12.540;2023-09-12T03:18:28;10.68;;;8.65;;
40931;SDS011;36257;46.052;12.540;2023-09-12T03:20:53;10.05;;;9.02;;
40931;SDS011;36257;46.052;12.540;2023-09-12T03:23:19;12.70;;;8.68;;
40931;SDS011;36257;46.052;12.540;2023-09-12T03:25:45;9.00;;;8.18;;
40931;SDS011;36257;46.052;12.540;2023-09-12T03:28:11;9.30;;;8.35;;
40931;SDS011;36257;46.052;12.540;2023-09-12T03:30:37;11.98;;;9.07;;
40931;SDS011;36257;46.052;12.540;2023-09-12T03:33:03;9.40;;;8.40;;
40931;SDS011;36257;46.052;12.540;2023-09-12T03:35:30;10.20;;;9.23;;
40931;SDS011;36257;46.052;12.540;2023-09-12T03:37:58;12.43;;;8.75;;
40931;SDS011;36257;46.052;12.540;2023-09-12T03:40:23;10.02;;;9.02;;
40931;SDS011;36257;46.052;12.540;2023-09-12T03:42:49;10.30;;;9.30;;
40931;SDS011;36257;46.052;12.540;2023-09-12T03:45:15;13.57;;;8.95;;
40931;SDS011;36257;46.052;12.540;2023-09-12T03:47:40;10.98;;;9.30;;
40931;SDS011;36257;46.052;12.540;2023-09-12T03:50:06;10.50;;;8.48;;
40931;SDS011;36257;46.052;12.540;2023-09-12T03:52:32;10.35;;;9.30;;
40931;SDS011;36257;46.052;12.540;2023-09-12T03:54:57;11.10;;;8.73;;
40931;SDS011;36257;46.052;12.540;2023-09-12T03:57:25;10.07;;;8.65;;
40931;SDS011;36257;46.052;12.540;2023-09-12T03:59:51;9.88;;;8.88;;
40931;SDS011;36257;46.052;12.540;2023-09-12T04:02:18;11.18;;;9.25;;
40931;SDS011;36257;46.052;12.540;2023-09-12T04:04:43;10.07;;;8.68;;
40931;SDS011;36257;46.052;12.540;2023-09-12T04:07:09;10.73;;;9.70;;
40931;SDS011;36257;46.052;12.540;2023-09-12T04:09:35;15.00;;;8.57;;
40931;SDS011;36257;46.052;12.540;2023-09-12T04:12:00;10.02;;;8.18;;
40931;SDS011;36257;46.052;12.540;2023-09-12T04:14:26;11.77;;;9.32;;
40931;SDS011;36257;46.052;12.540;2023-09-12T04:16:52;11.85;;;8.45;;
40931;SDS011;36257;46.052;12.540;2023-09-12T04:19:17;10.98;;;8.77;;
40931;SDS011;36257;46.052;12.540;2023-09-12T04:21:43;10.82;;;9.00;;
40931;SDS011;36257;46.052;12.540;2023-09-12T04:24:09;10.35;;;9.30;;
40931;SDS011;36257;46.052;12.540;2023-09-12T04:26:34;10.52;;;9.48;;
40931;SDS011;36257;46.052;12.540;2023-09-12T04:29:00;9.43;;;8.55;;
40931;SDS011;36257;46.052;12.540;2023-09-12T04:31:25;12.85;;;9.32;;
40931;SDS011;36257;46.052;12.540;2023-09-12T04:33:51;11.40;;;8.80;;
40931;SDS011;36257;46.052;12.540;2023-09-12T04:36:18;10.38;;;9.05;;
40931;SDS011;36257;46.052;12.540;2023-09-12T04:38:43;10.75;;;9.65;;
40931;SDS011;36257;46.052;12.540;2023-09-12T04:41:11;9.88;;;8.85;;
40931;SDS011;36257;46.052;12.540;2023-09-12T04:43:40;10.35;;;9.35;;
40931;SDS011;36257;46.052;12.540;2023-09-12T04:46:06;10.23;;;8.95;;
40931;SDS011;36257;46.052;12.540;2023-09-12T04:48:32;12.50;;;9.32;;
40931;SDS011;36257;46.052;12.540;2023-09-12T04:51:01;9.50;;;8.60;;
40931;SDS011;36257;46.052;12.540;2023-09-12T04:53:26;11.63;;;9.98;;
40931;SDS011;36257;46.052;12.540;2023-09-12T04:55:58;10.30;;;9.30;;
40931;SDS011;36257;46.052;12.540;2023-09-12T04:58:24;12.45;;;9.07;;
40931;SDS011;36257;46.052;12.540;2023-09-12T05:00:50;9.50;;;8.55;;
40931;SDS011;36257;46.052;12.540;2023-09-12T05:03:15;10.80;;;8.75;;
40931;SDS011;36257;46.052;12.540;2023-09-12T05:05:41;11.05;;;9.13;;
40931;SDS011;36257;46.052;12.540;2023-09-12T05:08:07;12.13;;;9.32;;
40931;SDS011;36257;46.052;12.540;2023-09-12T05:10:32;9.35;;;8.45;;
40931;SDS011;36257;46.052;12.540;2023-09-12T05:12:58;11.20;;;9.55;;
40931;SDS011;36257;46.052;12.540;2023-09-12T05:15:24;10.88;;;8.45;;
40931;SDS011;36257;46.052;12.540;2023-09-12T05:17:49;10.93;;;9.52;;
40931;SDS011;36257;46.052;12.540;2023-09-12T05:20:15;10.38;;;9.43;;
40931;SDS011;36257;46.052;12.540;2023-09-12T05:22:40;11.10;;;8.60;;
40931;SDS011;36257;46.052;12.540;2023-09-12T05:25:06;14.00;;;8.07;;
40931;SDS011;36257;46.052;12.540;2023-09-12T05:27:32;12.63;;;8.57;;
40931;SDS011;36257;46.052;12.540;2023-09-12T05:29:58;10.45;;;8.80;;
40931;SDS011;36257;46.052;12.540;2023-09-12T05:32:23;10.43;;;8.48;;
40931;SDS011;36257;46.052;12.540;2023-09-12T05:34:49;11.65;;;8.55;;
40931;SDS011;36257;46.052;12.540;2023-09-12T05:37:15;9.45;;;8.55;;
40931;SDS011;36257;46.052;12.540;2023-09-12T05:39:41;10.20;;;9.10;;
40931;SDS011;36257;46.052;12.540;2023-09-12T05:42:06;11.43;;;8.23;;
40931;SDS011;36257;46.052;12.540;2023-09-12T05:44:32;9.25;;;8.23;;
40931;SDS011;36257;46.052;12.540;2023-09-12T05:46:58;9.38;;;8.40;;
40931;SDS011;36257;46.052;12.540;2023-09-12T05:49:24;9.57;;;8.68;;
40931;SDS011;36257;46.052;12.540;2023-09-12T05:51:49;9.60;;;8.27;;
40931;SDS011;36257;46.052;12.540;2023-09-12T05:54:15;9.52;;;8.45;;
40931;SDS011;36257;46.052;12.540;2023-09-12T05:56:41;8.23;;;7.43;;
40931;SDS011;36257;46.052;12.540;2023-09-12T05:59:07;8.98;;;8.07;;
40931;SDS011;36257;46.052;12.540;2023-09-12T06:01:33;9.00;;;8.10;;
40931;SDS011;36257;46.052;12.540;2023-09-12T06:03:59;8.23;;;7.53;;
40931;SDS011;36257;46.052;12.540;2023-09-12T06:06:24;10.45;;;8.10;;
40931;SDS011;36257;46.052;12.540;2023-09-12T06:08:50;9.40;;;7.45;;
40931;SDS011;36257;46.052;12.540;2023-09-12T06:11:17;10.02;;;8.55;;
40931;SDS011;36257;46.052;12.540;2023-09-12T06:13:49;10.55;;;7.93;;
40931;SDS011;36257;46.052;12.540;2023-09-12T06:16:14;11.35;;;7.93;;
40931;SDS011;36257;46.052;12.540;2023-09-12T06:18:40;8.77;;;7.63;;
40931;SDS011;36257;46.052;12.540;2023-09-12T06:21:06;8.30;;;7.55;;
40931;SDS011;36257;46.052;12.540;2023-09-12T06:23:33;10.50;;;8.57;;
40931;SDS011;36257;46.052;12.540;2023-09-12T06:25:59;10.65;;;8.25;;
40931;SDS011;36257;46.052;12.540;2023-09-12T06:28:25;12.48;;;8.30;;
40931;SDS011;36257;46.052;12.540;2023-09-12T06:30:52;9.45;;;8.48;;
40931;SDS011;36257;46.052;12.540;2023-09-12T06:33:18;10.02;;;8.45;;
40931;SDS011;36257;46.052;12.540;2023-09-12T06:35:43;10.52;;;9.32;;
40931;SDS011;36257;46.052;12.540;2023-09-12T06:38:12;12.88;;;8.45;;
40931;SDS011;36257;46.052;12.540;2023-09-12T06:40:38;9.55;;;8.35;;
40931;SDS011;36257;46.052;12.540;2023-09-12T06:43:04;10.38;;;8.52;;
40931;SDS011;36257;46.052;12.540;2023-09-12T06:45:29;10.05;;;8.85;;
40931;SDS011;36257;46.052;12.540;2023-09-12T06:47:57;9.95;;;8.93;;
40931;SDS011;36257;46.052;12.540;2023-09-12T06:50:23;10.45;;;9.27;;
40931;SDS011;36257;46.052;12.540;2023-09-12T06:52:49;10.07;;;9.02;;
40931;SDS011;36257;46.052;12.540;2023-09-12T06:55:14;12.15;;;9.30;;
40931;SDS011;36257;46.052;12.540;2023-09-12T06:57:40;10.60;;;9.52;;
40931;SDS011;36257;46.052;12.540;2023-09-12T07:00:06;14.15;;;8.77;;
40931;SDS011;36257;46.052;12.540;2023-09-12T07:02:32;12.87;;;8.23;;
40931;SDS011;36257;46.052;12.540;2023-09-12T07:04:58;9.77;;;8.77;;
40931;SDS011;36257;46.052;12.540;2023-09-12T07:07:24;10.15;;;8.88;;
40931;SDS011;36257;46.052;12.540;2023-09-12T07:09:49;9.52;;;8.30;;
40931;SDS011;36257;46.052;12.540;2023-09-12T07:12:15;9.80;;;8.85;;
40931;SDS011;36257;46.052;12.540;2023-09-12T07:14:41;9.75;;;7.35;;
40931;SDS011;36257;46.052;12.540;2023-09-12T07:17:07;8.90;;;8.00;;
40931;SDS011;36257;46.052;12.540;2023-09-12T07:19:33;14.98;;;8.57;;
40931;SDS011;36257;46.052;12.540;2023-09-12T07:21:59;7.85;;;7.15;;
40931;SDS011;36257;46.052;12.540;2023-09-12T07:24:25;9.73;;;8.18;;
40931;SDS011;36257;46.052;12.540;2023-09-12T07:26:51;9.35;;;8.00;;
40931;SDS011;36257;46.052;12.540;2023-09-12T07:29:17;9.30;;;8.27;;
40931;SDS011;36257;46.052;12.540;2023-09-12T07:31:43;9.73;;;8.75;;
40931;SDS011;36257;46.052;12.540;2023-09-12T07:34:08;12.02;;;9.07;;
40931;SDS011;36257;46.052;12.540;2023-09-12T07:36:35;9.95;;;8.18;;
40931;SDS011;36257;46.052;12.540;2023-09-12T07:39:01;11.75;;;9.20;;
40931;SDS011;36257;46.052;12.540;2023-09-12T07:41:28;9.80;;;7.85;;
40931;SDS011;36257;46.052;12.540;2023-09-12T07:43:55;9.02;;;7.80;;
40931;SDS011;36257;46.052;12.540;2023-09-12T07:46:21;10.27;;;9.15;;
40931;SDS011;36257;46.052;12.540;2023-09-12T07:48:46;9.85;;;7.70;;
40931;SDS011;36257;46.052;12.540;2023-09-12T07:51:15;9.88;;;7.80;;
40931;SDS011;36257;46.052;12.540;2023-09-12T07:53:42;7.55;;;6.75;;
40931;SDS011;36257;46.052;12.540;2023-09-12T07:56:08;10.02;;;7.60;;
40931;SDS011;36257;46.052;12.540;2023-09-12T07:58:35;10.98;;;8.50;;
40931;SDS011;36257;46.052;12.540;2023-09-12T08:01:04;13.18;;;8.30;;
40931;SDS011;36257;46.052;12.540;2023-09-12T08:03:31;12.13;;;7.90;;
40931;SDS011;36257;46.052;12.540;2023-09-12T08:05:57;10.00;;;7.05;;
40931;SDS011;36257;46.052;12.540;2023-09-12T08:08:23;9.10;;;8.20;;
40931;SDS011;36257;46.052;12.540;2023-09-12T08:10:49;8.98;;;7.60;;
40931;SDS011;36257;46.052;12.540;2023-09-12T08:13:14;7.32;;;6.63;;
40931;SDS011;36257;46.052;12.540;2023-09-12T08:15:40;8.82;;;6.65;;
40931;SDS011;36257;46.052;12.540;2023-09-12T08:18:06;7.88;;;6.68;;
40931;SDS011;36257;46.052;12.540;2023-09-12T08:20:31;8.93;;;7.13;;
40931;SDS011;36257;46.052;12.540;2023-09-12T08:22:57;7.20;;;6.50;;
40931;SDS011;36257;46.052;12.540;2023-09-12T08:25:23;8.13;;;6.82;;
40931;SDS011;36257;46.052;12.540;2023-09-12T08:27:49;10.07;;;6.88;;
40931;SDS011;36257;46.052;12.540;2023-09-12T08:30:15;7.65;;;6.65;;
40931;SDS011;36257;46.052;12.540;2023-09-12T08:32:41;8.85;;;6.82;;
40931;SDS011;36257;46.052;12.540;2023-09-12T08:35:09;8.52;;;6.88;;
40931;SDS011;36257;46.052;12.540;2023-09-12T08:37:37;11.25;;;6.93;;
40931;SDS011;36257;46.052;12.540;2023-09-12T08:40:04;12.55;;;7.63;;
40931;SDS011;36257;46.052;12.540;2023-09-12T08:42:32;9.70;;;6.97;;
40931;SDS011;36257;46.052;12.540;2023-09-12T08:45:05;8.77;;;6.90;;
40931;SDS011;36257;46.052;12.540;2023-09-12T08:47:37;18.20;;;7.38;;
40931;SDS011;36257;46.052;12.540;2023-09-12T08:50:07;8.75;;;7.80;;
40931;SDS011;36257;46.052;12.540;2023-09-12T08:52:40;9.52;;;7.03;;
40931;SDS011;36257;46.052;12.540;2023-09-12T08:55:07;11.40;;;7.73;;
40931;SDS011;36257;46.052;12.540;2023-09-12T08:57:34;10.55;;;6.93;;
40931;SDS011;36257;46.052;12.540;2023-09-12T09:00:03;7.50;;;6.45;;
40931;SDS011;36257;46.052;12.540;2023-09-12T09:02:34;10.57;;;6.88;;
40931;SDS011;36257;46.052;12.540;2023-09-12T09:05:01;6.90;;;6.07;;
40931;SDS011;36257;46.052;12.540;2023-09-12T09:07:34;9.38;;;6.80;;
40931;SDS011;36257;46.052;12.540;2023-09-12T09:10:04;9.25;;;7.47;;
40931;SDS011;36257;46.052;12.540;2023-09-12T09:12:32;8.43;;;7.55;;
40931;SDS011;36257;46.052;12.540;2023-09-12T09:14:58;9.20;;;7.45;;
40931;SDS011;36257;46.052;12.540;2023-09-12T09:17:44;8.50;;;7.00;;
40931;SDS011;36257;46.052;12.540;2023-09-12T09:20:10;9.90;;;6.28;;
40931;SDS011;36257;46.052;12.540;2023-09-12T09:23:23;14.23;;;7.35;;
40931;SDS011;36257;46.052;12.540;2023-09-12T09:25:42;11.98;;;7.93;;
40931;SDS011;36257;46.052;12.540;2023-09-12T09:28:17;9.30;;;6.88;;
40931;SDS011;36257;46.052;12.540;2023-09-12T09:30:44;7.75;;;6.97;;
40931;SDS011;36257;46.052;12.540;2023-09-12T09:33:16;10.63;;;7.30;;
40931;SDS011;36257;46.052;12.540;2023-09-12T09:35:42;11.20;;;7.65;;
40931;SDS011;36257;46.052;12.540;2023-09-12T09:38:10;12.02;;;7.97;;
40931;SDS011;36257;46.052;12.540;2023-09-12T09:40:41;9.95;;;7.43;;
40931;SDS011;36257;46.052;12.540;2023-09-12T09:43:10;13.00;;;7.78;;
40931;SDS011;36257;46.052;12.540;2023-09-12T09:45:42;7.88;;;6.53;;
40931;SDS011;36257;46.052;12.540;2023-09-12T09:48:25;7.20;;;6.57;;
40931;SDS011;36257;46.052;12.540;2023-09-12T09:50:52;11.00;;;7.78;;
40931;SDS011;36257;46.052;12.540;2023-09-12T09:53:36;8.80;;;7.18;;
40931;SDS011;36257;46.052;12.540;2023-09-12T09:56:11;9.23;;;8.23;;
40931;SDS011;36257;46.052;12.540;2023-09-12T09:58:47;9.88;;;6.75;;
40931;SDS011;36257;46.052;12.540;2023-09-12T10:01:17;8.15;;;6.80;;
40931;SDS011;36257;46.052;12.540;2023-09-12T10:03:48;9.32;;;7.13;;
40931;SDS011;36257;46.052;12.540;2023-09-12T10:06:19;10.45;;;7.55;;
40931;SDS011;36257;46.052;12.540;2023-09-12T10:08:45;7.78;;;6.97;;
40931;SDS011;36257;46.052;12.540;2023-09-12T10:11:16;10.20;;;7.25;;
40931;SDS011;36257;46.052;12.540;2023-09-12T10:13:47;8.35;;;7.55;;
40931;SDS011;36257;46.052;12.540;2023-09-12T10:16:17;9.57;;;7.72;;
40931;SDS011;36257;46.052;12.540;2023-09-12T10:24:52;9.57;;;7.68;;
40931;SDS011;36257;46.052;12.540;2023-09-12T10:27:21;9.23;;;7.78;;
40931;SDS011;36257;46.052;12.540;2023-09-12T10:29:49;8.13;;;7.32;;
40931;SDS011;36257;46.052;12.540;2023-09-12T10:32:18;12.73;;;7.90;;
40931;SDS011;36257;46.052;12.540;2023-09-12T10:34:45;7.47;;;6.75;;
40931;SDS011;36257;46.052;12.540;2023-09-12T10:37:16;9.23;;;8.27;;
40931;SDS011;36257;46.052;12.540;2023-09-12T10:39:44;9.05;;;7.50;;
40931;SDS011;36257;46.052;12.540;2023-09-12T10:42:11;11.67;;;7.87;;
40931;SDS011;36257;46.052;12.540;2023-09-12T10:44:38;8.13;;;7.32;;
40931;SDS011;36257;46.052;12.540;2023-09-12T10:47:04;10.40;;;8.50;;
40931;SDS011;36257;46.052;12.540;2023-09-12T10:51:56;8.57;;;7.70;;
40931;SDS011;36257;46.052;12.540;2023-09-12T10:54:26;9.45;;;8.07;;
40931;SDS011;36257;46.052;12.540;2023-09-12T10:57:07;9.90;;;7.40;;
40931;SDS011;36257;46.052;12.540;2023-09-12T10:59:36;10.00;;;8.30;;
40931;SDS011;36257;46.052;12.540;2023-09-12T11:04:56;10.27;;;8.73;;
40931;SDS011;36257;46.052;12.540;2023-09-12T11:07:32;11.02;;;8.73;;
40931;SDS011;36257;46.052;12.540;2023-09-12T11:10:19;11.23;;;7.90;;
40931;SDS011;36257;46.052;12.540;2023-09-12T11:12:46;11.77;;;8.27;;
40931;SDS011;36257;46.052;12.540;2023-09-12T11:15:16;10.05;;;8.10;;
40931;SDS011;36257;46.052;12.540;2023-09-12T11:20:09;8.33;;;7.50;;
40931;SDS011;36257;46.052;12.540;2023-09-12T11:22:43;11.80;;;8.23;;
40931;SDS011;36257;46.052;12.540;2023-09-12T11:25:22;11.10;;;7.85;;
40931;SDS011;36257;46.052;12.540;2023-09-12T11:30:16;10.32;;;7.72;;
40931;SDS011;36257;46.052;12.540;2023-09-12T11:32:52;9.55;;;8.65;;
40931;SDS011;36257;46.052;12.540;2023-09-12T11:35:23;8.32;;;7.50;;
40931;SDS011;36257;46.052;12.540;2023-09-12T11:37:53;11.45;;;7.65;;
40931;SDS011;36257;46.052;12.540;2023-09-12T11:40:41;9.23;;;7.85;;
40931;SDS011;36257;46.052;12.540;2023-09-12T11:43:17;11.45;;;8.27;;
40931;SDS011;36257;46.052;12.540;2023-09-12T11:45:54;9.50;;;6.95;;
40931;SDS011;36257;46.052;12.540;2023-09-12T11:48:20;9.07;;;6.88;;
40931;SDS011;36257;46.052;12.540;2023-09-12T11:50:53;9.38;;;7.05;;
40931;SDS011;36257;46.052;12.540;2023-09-12T11:53:23;8.20;;;7.40;;
40931;SDS011;36257;46.052;12.540;2023-09-12T11:55:53;10.52;;;7.00;;
40931;SDS011;36257;46.052;12.540;2023-09-12T11:58:20;7.88;;;6.85;;
40931;SDS011;36257;46.052;12.540;2023-09-12T12:00:50;8.32;;;6.90;;
40931;SDS011;36257;46.052;12.540;2023-09-12T12:03:17;12.10;;;7.15;;
40931;SDS011;36257;46.052;12.540;2023-09-12T12:05:45;11.30;;;7.75;;
40931;SDS011;36257;46.052;12.540;2023-09-12T12:08:11;7.85;;;7.05;;
40931;SDS011;36257;46.052;12.540;2023-09-12T12:10:38;8.82;;;6.82;;
40931;SDS011;36257;46.052;12.540;2023-09-12T12:13:05;10.07;;;7.05;;
40931;SDS011;36257;46.052;12.540;2023-09-12T12:15:31;9.20;;;7.38;;
40931;SDS011;36257;46.052;12.540;2023-09-12T12:17:57;9.25;;;7.43;;
40931;SDS011;36257;46.052;12.540;2023-09-12T12:20:23;8.45;;;7.60;;
40931;SDS011;36257;46.052;12.540;2023-09-12T12:22:49;7.13;;;6.32;;
40931;SDS011;36257;46.052;12.540;2023-09-12T12:25:18;8.60;;;7.70;;
40931;SDS011;36257;46.052;12.540;2023-09-12T12:27:43;9.05;;;7.20;;
40931;SDS011;36257;46.052;12.540;2023-09-12T12:30:10;11.40;;;6.57;;
40931;SDS011;36257;46.052;12.540;2023-09-12T12:32:42;9.02;;;6.55;;
40931;SDS011;36257;46.052;12.540;2023-09-12T12:35:16;11.25;;;6.72;;
40931;SDS011;36257;46.052;12.540;2023-09-12T12:37:43;9.07;;;6.20;;
40931;SDS011;36257;46.052;12.540;2023-09-12T12:40:11;7.68;;;7.00;;
40931;SDS011;36257;46.052;12.540;2023-09-12T12:42:38;6.88;;;6.18;;
40931;SDS011;36257;46.052;12.540;2023-09-12T12:45:14;11.80;;;8.02;;
40931;SDS011;36257;46.052;12.540;2023-09-12T12:47:44;9.68;;;6.97;;
40931;SDS011;36257;46.052;12.540;2023-09-12T12:50:10;7.73;;;6.60;;
40931;SDS011;36257;46.052;12.540;2023-09-12T12:55:06;9.65;;;7.65;;
40931;SDS011;36257;46.052;12.540;2023-09-12T12:57:38;13.00;;;6.88;;
40931;SDS011;36257;46.052;12.540;2023-09-12T13:00:08;10.50;;;6.88;;
40931;SDS011;36257;46.052;12.540;2023-09-12T13:05:20;10.45;;;7.75;;
40931;SDS011;36257;46.052;12.540;2023-09-12T13:07:56;7.88;;;7.07;;
40931;SDS011;36257;46.052;12.540;2023-09-12T13:10:22;11.88;;;7.20;;
40931;SDS011;36257;46.052;12.540;2023-09-12T13:12:48;11.17;;;7.40;;
40931;SDS011;36257;46.052;12.540;2023-09-12T13:15:15;8.30;;;7.32;;
40931;SDS011;36257;46.052;12.540;2023-09-12T13:17:42;8.65;;;7.47;;
40931;SDS011;36257;46.052;12.540;2023-09-12T13:20:08;10.93;;;7.55;;
40931;SDS011;36257;46.052;12.540;2023-09-12T13:22:35;7.60;;;6.97;;
40931;SDS011;36257;46.052;12.540;2023-09-12T13:25:01;10.68;;;7.32;;
40931;SDS011;36257;46.052;12.540;2023-09-12T13:27:27;9.63;;;8.07;;
40931;SDS011;36257;46.052;12.540;2023-09-12T13:29:53;9.05;;;8.02;;
40931;SDS011;36257;46.052;12.540;2023-09-12T13:32:19;8.38;;;7.55;;
40931;SDS011;36257;46.052;12.540;2023-09-12T13:34:44;11.70;;;7.00;;
40931;SDS011;36257;46.052;12.540;2023-09-12T13:37:10;7.80;;;7.03;;
40931;SDS011;36257;46.052;12.540;2023-09-12T13:39:36;12.27;;;7.38;;
40931;SDS011;36257;46.052;12.540;2023-09-12T13:42:02;7.35;;;6.65;;
40931;SDS011;36257;46.052;12.540;2023-09-12T13:44:28;9.48;;;6.95;;
40931;SDS011;36257;46.052;12.540;2023-09-12T13:46:54;8.18;;;7.38;;
40931;SDS011;36257;46.052;12.540;2023-09-12T13:49:19;7.85;;;6.93;;
40931;SDS011;36257;46.052;12.540;2023-09-12T13:51:45;13.90;;;8.30;;
40931;SDS011;36257;46.052;12.540;2023-09-12T13:54:11;10.18;;;7.97;;
40931;SDS011;36257;46.052;12.540;2023-09-12T13:56:40;9.27;;;8.10;;
40931;SDS011;36257;46.052;12.540;2023-09-12T13:59:06;10.95;;;8.55;;
40931;SDS011;36257;46.052;12.540;2023-09-12T14:01:32;9.43;;;7.85;;
40931;SDS011;36257;46.052;12.540;2023-09-12T14:03:57;9.43;;;8.50;;
40931;SDS011;36257;46.052;12.540;2023-09-12T14:06:23;10.75;;;8.05;;
40931;SDS011;36257;46.052;12.540;2023-09-12T14:08:49;10.23;;;8.82;;
40931;SDS011;36257;46.052;12.540;2023-09-12T14:11:14;9.75;;;8.48;;
40931;SDS011;36257;46.052;12.540;2023-09-12T14:13:40;9.80;;;8.10;;
40931;SDS011;36257;46.052;12.540;2023-09-12T14:16:06;10.57;;;8.90;;
40931;SDS011;36257;46.052;12.540;2023-09-12T14:18:31;11.00;;;8.90;;
40931;SDS011;36257;46.052;12.540;2023-09-12T14:20:57;40.97;;;11.05;;
40931;SDS011;36257;46.052;12.540;2023-09-12T14:23:23;18.63;;;9.65;;
40931;SDS011;36257;46.052;12.540;2023-09-12T14:25:48;10.40;;;8.68;;
40931;SDS011;36257;46.052;12.540;2023-09-12T14:28:14;10.30;;;8.85;;
40931;SDS011;36257;46.052;12.540;2023-09-12T14:30:40;13.05;;;9.32;;
40931;SDS011;36257;46.052;12.540;2023-09-12T14:33:09;11.10;;;9.73;;
40931;SDS011;36257;46.052;12.540;2023-09-12T14:35:35;11.88;;;10.75;;
40931;SDS011;36257;46.052;12.540;2023-09-12T14:38:01;12.60;;;9.80;;
40931;SDS011;36257;46.052;12.540;2023-09-12T14:40:27;12.18;;;10.55;;
40931;SDS011;36257;46.052;12.540;2023-09-12T14:42:53;10.45;;;8.95;;
40931;SDS011;36257;46.052;12.540;2023-09-12T14:45:19;11.10;;;8.77;;
40931;SDS011;36257;46.052;12.540;2023-09-12T14:47:44;12.25;;;9.40;;
40931;SDS011;36257;46.052;12.540;2023-09-12T14:50:10;15.75;;;11.63;;
40931;SDS011;36257;46.052;12.540;2023-09-12T14:52:36;11.10;;;9.35;;
40931;SDS011;36257;46.052;12.540;2023-09-12T14:55:03;12.57;;;9.57;;
40931;SDS011;36257;46.052;12.540;2023-09-12T14:57:29;11.75;;;10.57;;
40931;SDS011;36257;46.052;12.540;2023-09-12T14:59:55;13.27;;;9.52;;